createdAt,value
2023-03-18T00:02:18.761Z,6.20
2023-03-18T00:04:46.789Z,5.53
2023-03-18T00:07:14.700Z,5.18
2023-03-18T00:09:42.643Z,6.05
2023-03-18T00:12:10.763Z,6.15
2023-03-18T00:14:38.052Z,7.13
2023-03-18T00:17:05.848Z,7.90
2023-03-18T00:19:33.911Z,7.20
2023-03-18T00:22:00.860Z,8.00
2023-03-18T00:24:28.598Z,7.05
2023-03-18T00:26:56.184Z,7.22
2023-03-18T00:29:25.046Z,6.80
2023-03-18T00:31:52.103Z,7.60
2023-03-18T00:34:20.530Z,6.60
2023-03-18T00:36:51.008Z,6.78
2023-03-18T00:39:21.699Z,5.93
2023-03-18T00:41:48.845Z,6.00
2023-03-18T00:44:16.083Z,6.13
2023-03-18T00:46:43.821Z,6.20
2023-03-18T00:49:11.599Z,6.57
2023-03-18T00:51:38.665Z,5.60
2023-03-18T00:54:07.468Z,6.55
2023-03-18T00:56:36.011Z,5.50
2023-03-18T00:59:03.250Z,5.53
2023-03-18T01:01:30.431Z,5.38
2023-03-18T01:03:57.989Z,5.53
2023-03-18T01:06:28.413Z,5.85
2023-03-18T01:08:56.031Z,5.75
2023-03-18T01:11:23.514Z,5.35
2023-03-18T01:13:51.073Z,6.05
2023-03-18T01:16:18.281Z,6.05
2023-03-18T01:18:45.692Z,5.85
2023-03-18T01:21:12.851Z,5.95
2023-03-18T01:23:40.231Z,5.57
2023-03-18T01:26:07.436Z,5.88
2023-03-18T01:28:34.468Z,5.80
2023-03-18T01:31:03.823Z,5.90
2023-03-18T01:33:36.156Z,5.85
2023-03-18T01:36:04.145Z,5.75
2023-03-18T01:38:31.613Z,5.35
2023-03-18T01:40:59.951Z,5.80
2023-03-18T01:43:32.331Z,5.70
2023-03-18T01:48:41.472Z,5.80
2023-03-18T01:51:09.109Z,6.20
2023-03-18T01:53:42.844Z,6.60
2023-03-18T01:56:10.077Z,5.95
2023-03-18T01:58:43.329Z,5.35
2023-03-18T02:01:14.950Z,5.80
2023-03-18T02:06:12.626Z,5.03
2023-03-18T02:08:40.353Z,5.35
2023-03-18T02:11:08.545Z,6.35
2023-03-18T02:13:40.176Z,5.50
2023-03-18T02:16:14.595Z,5.25
2023-03-18T02:18:44.332Z,5.28
2023-03-18T02:21:29.783Z,6.10
2023-03-18T02:24:22.645Z,6.70
2023-03-18T02:27:18.570Z,6.15
2023-03-18T02:29:48.801Z,6.78
2023-03-18T02:32:15.843Z,6.45
2023-03-18T02:34:43.388Z,6.68
2023-03-18T02:37:11.281Z,7.47
2023-03-18T02:39:38.152Z,6.95
2023-03-18T02:42:05.731Z,7.15
2023-03-18T02:44:33.032Z,7.80
2023-03-18T02:47:04.379Z,7.55
2023-03-18T02:49:32.925Z,8.18
2023-03-18T02:52:00.325Z,8.02
2023-03-18T02:54:29.042Z,8.38
2023-03-18T02:56:56.103Z,8.52
2023-03-18T02:59:23.203Z,8.55
2023-03-18T03:01:51.766Z,8.32
2023-03-18T03:04:19.012Z,9.73
2023-03-18T03:06:46.390Z,9.73
2023-03-18T03:09:15.383Z,9.52
2023-03-18T03:11:43.137Z,9.43
2023-03-18T03:14:10.442Z,9.23
2023-03-18T03:16:37.941Z,9.73
2023-03-18T03:19:05.996Z,9.20
2023-03-18T03:21:34.311Z,9.73
2023-03-18T03:24:01.107Z,9.48
2023-03-18T03:26:28.010Z,9.23
2023-03-18T03:28:55.820Z,8.55
2023-03-18T03:31:23.926Z,8.73
2023-03-18T03:33:50.872Z,8.63
2023-03-18T03:36:17.897Z,8.63
2023-03-18T03:38:44.996Z,8.20
2023-03-18T03:41:12.253Z,7.80
2023-03-18T03:43:40.360Z,8.98
2023-03-18T03:46:07.813Z,8.52
2023-03-18T03:48:34.845Z,7.53
2023-03-18T03:51:02.462Z,8.73
2023-03-18T03:53:29.361Z,8.35
2023-03-18T03:55:58.999Z,8.95
2023-03-18T03:58:26.555Z,8.80
2023-03-18T04:00:53.421Z,8.48
2023-03-18T04:03:20.360Z,7.95
2023-03-18T04:05:48.039Z,8.00
2023-03-18T04:08:14.817Z,8.15
2023-03-18T04:10:41.680Z,7.72
2023-03-18T04:13:08.885Z,8.10
2023-03-18T04:15:35.744Z,8.77
2023-03-18T04:18:06.788Z,8.82
2023-03-18T04:20:35.387Z,9.38
2023-03-18T04:23:02.710Z,8.75
2023-03-18T04:25:30.153Z,9.73
2023-03-18T04:27:57.400Z,8.50
2023-03-18T04:30:25.584Z,9.50
2023-03-18T04:32:52.476Z,9.27
2023-03-18T04:35:19.734Z,9.32
2023-03-18T04:37:46.604Z,8.90
2023-03-18T04:40:13.434Z,8.65
2023-03-18T04:42:40.906Z,9.35
2023-03-18T04:45:08.069Z,9.55
2023-03-18T04:47:36.006Z,8.73
2023-03-18T04:50:04.678Z,9.40
2023-03-18T04:52:31.475Z,9.77
2023-03-18T04:54:58.252Z,7.70
2023-03-18T04:57:25.237Z,8.32
2023-03-18T04:59:52.176Z,8.55
2023-03-18T05:02:19.883Z,8.68
2023-03-18T05:04:46.689Z,7.93
2023-03-18T05:07:15.379Z,7.63
2023-03-18T05:09:42.428Z,8.18
2023-03-18T05:12:13.653Z,7.07
2023-03-18T05:14:41.798Z,7.05
2023-03-18T05:17:15.627Z,6.72
2023-03-18T05:19:46.972Z,6.13
2023-03-18T05:22:15.405Z,5.72
2023-03-18T05:24:44.082Z,5.88
2023-03-18T05:27:11.080Z,6.88
2023-03-18T05:29:41.285Z,5.70
2023-03-18T05:32:11.345Z,5.13
2023-03-18T05:34:39.004Z,6.00
2023-03-18T05:37:10.139Z,5.55
2023-03-18T05:39:37.261Z,6.55
2023-03-18T05:42:04.806Z,5.18
2023-03-18T05:44:32.632Z,5.20
2023-03-18T05:46:59.845Z,5.70
2023-03-18T05:49:27.367Z,5.15
2023-03-18T05:51:55.061Z,5.60
2023-03-18T05:54:22.112Z,6.90
2023-03-18T05:56:50.081Z,6.82
2023-03-18T05:59:17.059Z,6.38
2023-03-18T06:01:44.700Z,7.15
2023-03-18T06:04:11.735Z,6.80
2023-03-18T06:06:40.611Z,7.05
2023-03-18T06:09:08.695Z,6.93
2023-03-18T06:11:35.770Z,6.88
2023-03-18T06:14:03.403Z,7.32
2023-03-18T06:16:31.346Z,6.90
2023-03-18T06:18:58.513Z,6.45
2023-03-18T06:21:25.416Z,7.85
2023-03-18T06:23:52.411Z,6.13
2023-03-18T06:26:19.283Z,6.43
2023-03-18T06:28:46.305Z,5.45
2023-03-18T06:31:13.415Z,5.30
2023-03-18T06:33:40.331Z,5.60
2023-03-18T06:36:08.112Z,4.93
2023-03-18T06:38:34.920Z,4.95
2023-03-18T06:41:24.060Z,4.47
2023-03-18T06:43:58.346Z,4.13
2023-03-18T06:46:25.786Z,4.20
2023-03-18T06:48:59.481Z,3.85
2023-03-18T06:51:42.514Z,3.72
2023-03-18T06:54:17.258Z,3.13
2023-03-18T06:56:51.154Z,2.97
2023-03-18T06:59:19.223Z,2.90
2023-03-18T07:01:50.972Z,3.38
2023-03-18T07:04:28.603Z,3.13
2023-03-18T07:07:00.222Z,2.70
2023-03-18T07:09:38.941Z,2.22
2023-03-18T07:12:17.667Z,3.13
2023-03-18T07:14:44.657Z,2.72
2023-03-18T07:17:12.379Z,2.70
2023-03-18T07:19:39.853Z,2.88
2023-03-18T07:22:06.991Z,3.10
2023-03-18T07:24:34.794Z,2.63
2023-03-18T07:27:01.559Z,2.45
2023-03-18T07:29:28.499Z,2.70
2023-03-18T07:31:58.474Z,3.20
2023-03-18T07:34:28.790Z,3.08
2023-03-18T07:36:55.849Z,3.30
2023-03-18T07:39:23.312Z,3.45
2023-03-18T07:41:50.123Z,3.30
2023-03-18T07:44:17.058Z,2.65
2023-03-18T07:46:45.494Z,2.97
2023-03-18T07:49:12.399Z,3.47
2023-03-18T07:51:39.206Z,3.00
2023-03-18T07:54:09.850Z,3.40
2023-03-18T07:56:36.807Z,2.83
2023-03-18T07:59:03.628Z,2.53
2023-03-18T08:01:30.438Z,2.13
2023-03-18T08:03:57.907Z,2.13
2023-03-18T08:06:25.430Z,2.00
2023-03-18T08:08:52.354Z,2.08
2023-03-18T08:11:19.228Z,2.50
2023-03-18T08:13:46.088Z,1.70
2023-03-18T08:16:13.713Z,1.30
2023-03-18T08:18:41.972Z,1.40
2023-03-18T08:21:09.596Z,1.13
2023-03-18T08:23:37.241Z,1.00
2023-03-18T08:26:04.926Z,0.90
2023-03-18T08:28:32.003Z,0.98
2023-03-18T08:30:59.413Z,0.98
2023-03-18T08:33:27.668Z,0.90
2023-03-18T08:35:56.479Z,0.80
2023-03-18T08:38:24.089Z,0.70
2023-03-18T08:40:51.166Z,0.85
2023-03-18T08:43:18.287Z,0.70
2023-03-18T08:45:46.345Z,0.60
2023-03-18T08:48:15.872Z,0.75
2023-03-18T08:50:43.083Z,0.70
2023-03-18T08:53:11.461Z,0.60
2023-03-18T08:55:38.554Z,0.60
2023-03-18T08:58:05.935Z,0.60
2023-03-18T09:00:34.187Z,0.70
2023-03-18T09:03:01.781Z,0.73
2023-03-18T09:05:28.880Z,0.60
2023-03-18T09:07:55.921Z,0.68
2023-03-18T09:10:22.698Z,0.50
2023-03-18T09:12:50.005Z,0.43
2023-03-18T09:15:17.251Z,0.70
2023-03-18T09:17:59.862Z,0.70
2023-03-18T09:20:33.281Z,0.52
2023-03-18T09:23:00.522Z,0.70
2023-03-18T09:25:28.066Z,0.60
2023-03-18T09:27:54.994Z,0.70
2023-03-18T09:30:23.490Z,0.80
2023-03-18T09:32:52.063Z,0.70
2023-03-18T09:35:21.000Z,0.80
2023-03-18T09:37:48.651Z,0.77
2023-03-18T09:40:24.243Z,1.00
2023-03-18T09:43:23.026Z,1.00
2023-03-18T09:45:57.242Z,1.20
2023-03-18T09:48:47.920Z,0.98
2023-03-18T09:51:26.690Z,1.20
2023-03-18T09:53:57.072Z,0.90
2023-03-18T09:56:26.266Z,1.00
2023-03-18T09:59:06.230Z,1.00
2023-03-18T10:01:34.906Z,1.40
2023-03-18T10:04:16.341Z,1.00
2023-03-18T10:06:43.558Z,1.10
2023-03-18T10:09:17.180Z,1.05
2023-03-18T10:11:54.038Z,0.90
2023-03-18T10:14:27.033Z,0.90
2023-03-18T10:17:18.874Z,0.85
2023-03-18T10:19:54.916Z,1.05
2023-03-18T10:22:27.882Z,0.70
2023-03-18T10:25:09.854Z,0.70
2023-03-18T10:27:53.724Z,0.85
2023-03-18T10:30:49.340Z,0.70
2023-03-18T10:33:47.143Z,0.65
2023-03-18T10:36:48.337Z,0.90
2023-03-18T10:39:20.682Z,0.60
2023-03-18T10:41:52.232Z,0.55
2023-03-18T10:44:23.090Z,0.47
2023-03-18T10:47:13.147Z,0.60
2023-03-18T10:49:42.971Z,0.50
2023-03-18T10:52:24.772Z,0.63
2023-03-18T10:54:52.794Z,0.45
2023-03-18T10:57:21.500Z,0.40
2023-03-18T10:59:49.818Z,0.50
2023-03-18T11:02:32.174Z,0.40
2023-03-18T11:05:04.533Z,0.38
2023-03-18T11:07:31.322Z,0.40
2023-03-18T11:10:16.826Z,0.40
2023-03-18T11:12:43.684Z,0.40
2023-03-18T11:15:18.945Z,3.95
2023-03-18T11:17:48.353Z,0.30
2023-03-18T11:21:07.865Z,0.40
2023-03-18T11:23:48.745Z,0.40
2023-03-18T11:26:48.826Z,0.30
2023-03-18T11:29:24.491Z,0.30
2023-03-18T11:31:54.825Z,0.30
2023-03-18T11:34:22.255Z,0.20
2023-03-18T11:37:01.508Z,0.30
2023-03-18T11:39:30.899Z,0.30
2023-03-18T11:41:59.965Z,0.20
2023-03-18T11:44:31.797Z,0.20
2023-03-18T11:46:59.239Z,0.20
2023-03-18T11:49:27.487Z,0.20
2023-03-18T11:52:19.423Z,0.20
2023-03-18T11:54:46.771Z,0.15
2023-03-18T11:57:22.519Z,0.10
2023-03-18T12:00:29.421Z,0.17
2023-03-18T12:03:16.846Z,0.20
2023-03-18T12:05:56.589Z,0.20
2023-03-18T12:08:29.649Z,0.10
2023-03-18T12:11:07.954Z,0.10
2023-03-18T12:14:01.297Z,0.15
2023-03-18T12:16:41.579Z,0.10
2023-03-18T12:19:33.452Z,0.20
2023-03-18T12:22:08.615Z,0.20
2023-03-18T12:25:17.157Z,0.20
2023-03-18T12:27:58.786Z,0.20
2023-03-18T12:30:53.410Z,0.30
2023-03-18T12:33:45.913Z,0.20
2023-03-18T12:36:15.559Z,0.30
2023-03-18T12:38:45.678Z,1.40
2023-03-18T12:41:28.761Z,0.47
2023-03-18T12:44:02.187Z,0.80
2023-03-18T12:46:52.446Z,0.60
2023-03-18T12:49:29.934Z,0.50
2023-03-18T12:52:06.669Z,0.40
2023-03-18T12:54:37.464Z,0.40
2023-03-18T12:57:09.225Z,0.77
2023-03-18T12:59:45.386Z,0.57
2023-03-18T13:02:41.678Z,0.38
2023-03-18T13:05:18.684Z,0.30
2023-03-18T13:07:49.734Z,0.40
2023-03-18T13:10:24.461Z,0.32
2023-03-18T13:12:56.059Z,0.30
2023-03-18T13:15:28.485Z,0.40
2023-03-18T13:17:57.510Z,0.40
2023-03-18T13:20:30.588Z,0.52
2023-03-18T13:23:07.146Z,0.50
2023-03-18T13:25:41.414Z,0.52
2023-03-18T13:28:32.592Z,0.40
2023-03-18T13:31:34.841Z,0.40
2023-03-18T13:34:46.143Z,0.40
2023-03-18T13:37:40.125Z,0.40
2023-03-18T13:40:18.408Z,0.45
2023-03-18T13:42:45.799Z,0.85
2023-03-18T13:45:32.818Z,0.40
2023-03-18T13:48:11.318Z,0.45
2023-03-18T13:50:43.312Z,0.38
2023-03-18T13:53:31.343Z,0.68
2023-03-18T13:55:58.204Z,0.40
2023-03-18T13:58:28.651Z,0.40
2023-03-18T14:01:12.557Z,0.50
2023-03-18T14:03:51.481Z,0.32
2023-03-18T14:06:39.235Z,0.30
2023-03-18T14:09:31.983Z,0.30
2023-03-18T14:12:19.041Z,0.38
2023-03-18T14:14:48.639Z,0.47
2023-03-18T14:17:37.002Z,0.38
2023-03-18T14:20:19.401Z,0.60
2023-03-18T14:22:54.876Z,0.50
2023-03-18T14:25:22.688Z,0.60
2023-03-18T14:28:00.775Z,0.65
2023-03-18T14:30:40.026Z,0.40
2023-03-18T14:33:31.086Z,0.35
2023-03-18T14:36:06.797Z,0.30
2023-03-18T14:38:46.767Z,0.40
2023-03-18T14:41:39.602Z,0.40
2023-03-18T14:44:09.179Z,0.40
2023-03-18T14:46:41.969Z,0.85
2023-03-18T14:49:31.787Z,0.68
2023-03-18T14:51:59.212Z,0.73
2023-03-18T14:54:27.275Z,0.40
2023-03-18T14:56:55.382Z,0.60
2023-03-18T14:59:25.555Z,0.30
2023-03-18T15:01:54.208Z,0.22
2023-03-18T15:04:25.424Z,0.30
2023-03-18T15:06:53.297Z,0.20
2023-03-18T15:09:28.089Z,0.22
2023-03-18T15:11:54.920Z,0.30
2023-03-18T15:14:27.176Z,0.30
2023-03-18T15:16:55.366Z,0.20
2023-03-18T15:19:23.868Z,0.28
2023-03-18T15:21:50.970Z,0.38
2023-03-18T15:24:23.036Z,0.20
2023-03-18T15:26:57.061Z,0.17
2023-03-18T15:29:54.087Z,0.20
2023-03-18T15:32:27.509Z,0.40
2023-03-18T15:35:05.874Z,1.08
2023-03-18T15:37:40.779Z,0.30
2023-03-18T15:40:32.967Z,0.22
2023-03-18T15:43:09.040Z,0.40
2023-03-18T15:45:37.348Z,0.40
2023-03-18T15:48:08.440Z,0.30
2023-03-18T15:50:36.902Z,0.50
2023-03-18T15:53:20.874Z,0.30
2023-03-18T15:55:58.276Z,0.20
2023-03-18T15:58:34.604Z,0.30
2023-03-18T16:01:01.938Z,0.20
2023-03-18T16:03:31.725Z,0.30
2023-03-18T16:05:59.618Z,0.28
2023-03-18T16:08:27.118Z,0.30
2023-03-18T16:10:56.167Z,0.20
2023-03-18T16:13:24.795Z,0.30
2023-03-18T16:15:52.795Z,0.30
2023-03-18T16:18:21.188Z,0.35
2023-03-18T16:20:51.231Z,0.40
2023-03-18T16:23:18.819Z,0.40
2023-03-18T16:25:49.742Z,0.30
2023-03-18T16:28:22.501Z,0.20
2023-03-18T16:30:50.351Z,0.40
2023-03-18T16:33:19.198Z,0.50
2023-03-18T16:35:49.065Z,0.40
2023-03-18T16:38:17.208Z,0.30
2023-03-18T16:40:44.587Z,0.20
2023-03-18T16:43:19.773Z,0.20
2023-03-18T16:45:47.666Z,0.38
2023-03-18T16:48:17.486Z,0.32
2023-03-18T16:50:47.122Z,0.30
2023-03-18T16:53:23.633Z,0.30
2023-03-18T16:55:52.911Z,0.35
2023-03-18T16:58:22.857Z,0.28
2023-03-18T17:00:51.551Z,0.28
2023-03-18T17:03:18.799Z,0.28
2023-03-18T17:05:47.490Z,0.30
2023-03-18T17:08:14.380Z,0.10
2023-03-18T17:10:42.505Z,0.68
2023-03-18T17:13:16.177Z,0.17
2023-03-18T17:15:43.152Z,0.28
2023-03-18T17:18:14.009Z,0.30
2023-03-18T17:20:41.668Z,0.30
2023-03-18T17:23:14.634Z,0.43
2023-03-18T17:25:41.797Z,0.50
2023-03-18T17:28:11.098Z,0.40
2023-03-18T17:30:41.598Z,0.77
2023-03-18T17:33:35.757Z,0.50
2023-03-18T17:36:02.863Z,0.50
2023-03-18T17:38:31.426Z,0.60
2023-03-18T17:41:00.751Z,0.50
2023-03-18T17:43:29.324Z,0.75
2023-03-18T17:45:57.025Z,0.70
2023-03-18T17:48:31.832Z,0.60
2023-03-18T17:51:02.455Z,0.70
2023-03-18T17:53:37.429Z,0.90
2023-03-18T17:56:05.793Z,1.10
2023-03-18T17:58:33.298Z,1.13
2023-03-18T18:01:05.883Z,1.13
2023-03-18T18:03:33.010Z,1.00
2023-03-18T18:06:00.568Z,1.10
2023-03-18T18:08:28.666Z,1.33
2023-03-18T18:11:04.375Z,0.70
2023-03-18T18:13:31.583Z,0.85
2023-03-18T18:15:58.854Z,0.85
2023-03-18T18:18:27.214Z,0.80
2023-03-18T18:21:01.800Z,0.80
2023-03-18T18:23:36.308Z,1.00
2023-03-18T18:26:05.154Z,0.80
2023-03-18T18:28:34.154Z,0.60
2023-03-18T18:31:05.683Z,0.80
2023-03-18T18:33:33.372Z,1.20
2023-03-18T18:36:01.732Z,1.00
2023-03-18T18:38:29.316Z,1.00
2023-03-18T18:40:57.436Z,1.52
2023-03-18T18:43:25.044Z,1.23
2023-03-18T18:45:52.902Z,1.23
2023-03-18T18:48:23.631Z,1.42
2023-03-18T18:50:50.813Z,1.17
2023-03-18T18:53:24.663Z,1.73
2023-03-18T18:55:52.974Z,1.77
2023-03-18T18:58:22.210Z,1.88
2023-03-18T19:00:52.726Z,1.40
2023-03-18T19:03:20.846Z,1.42
2023-03-18T19:05:49.166Z,1.40
2023-03-18T19:08:25.843Z,1.77
2023-03-18T19:10:57.400Z,1.90
2023-03-18T19:13:25.275Z,1.52
2023-03-18T19:15:53.491Z,1.55
2023-03-18T19:18:23.070Z,1.90
2023-03-18T19:20:52.563Z,2.70
2023-03-18T19:23:25.012Z,2.00
2023-03-18T19:25:52.690Z,2.08
2023-03-18T19:28:22.171Z,2.13
2023-03-18T19:30:49.134Z,2.53
2023-03-18T19:33:22.230Z,1.90
2023-03-18T19:35:49.204Z,1.80
2023-03-18T19:38:17.919Z,3.17
2023-03-18T19:40:44.865Z,2.90
2023-03-18T19:43:21.978Z,3.17
2023-03-18T19:45:50.668Z,3.13
2023-03-18T19:48:20.364Z,3.88
2023-03-18T19:50:47.734Z,2.17
2023-03-18T19:53:15.654Z,2.58
2023-03-18T19:55:42.668Z,2.72
2023-03-18T19:58:26.419Z,2.70
2023-03-18T20:00:54.269Z,2.65
2023-03-18T20:03:21.292Z,3.40
2023-03-18T20:05:48.871Z,2.75
2023-03-18T20:08:15.990Z,2.47
2023-03-18T20:10:43.182Z,2.83
2023-03-18T20:13:21.397Z,2.03
2023-03-18T20:15:49.096Z,2.97
2023-03-18T20:18:26.075Z,3.38
2023-03-18T20:20:53.032Z,2.90
2023-03-18T20:23:24.012Z,3.22
2023-03-18T20:25:54.360Z,3.08
2023-03-18T20:28:23.604Z,3.17
2023-03-18T20:30:51.809Z,2.72
2023-03-18T20:33:24.069Z,3.78
2023-03-18T20:35:51.656Z,3.00
2023-03-18T20:38:26.978Z,4.03
2023-03-18T20:40:53.838Z,3.40
2023-03-18T20:43:23.435Z,3.42
2023-03-18T20:45:51.860Z,2.35
2023-03-18T20:48:19.562Z,2.30
2023-03-18T20:50:54.261Z,3.17
2023-03-18T20:53:28.632Z,2.70
2023-03-18T20:55:56.408Z,2.55
2023-03-18T20:58:24.861Z,3.13
2023-03-18T21:00:52.444Z,2.00
2023-03-18T21:03:29.554Z,2.30
2023-03-18T21:05:57.929Z,2.80
2023-03-18T21:08:26.050Z,2.05
2023-03-18T21:10:53.505Z,2.13
2023-03-18T21:13:34.994Z,1.50
2023-03-18T21:16:03.489Z,2.25
2023-03-18T21:18:30.605Z,1.40
2023-03-18T21:20:57.849Z,1.30
2023-03-18T21:23:26.666Z,1.55
2023-03-18T21:25:54.730Z,1.10
2023-03-18T21:28:22.123Z,1.08
2023-03-18T21:30:50.918Z,1.10
2023-03-18T21:33:24.540Z,1.35
2023-03-18T21:35:52.526Z,1.02
2023-03-18T21:38:19.327Z,1.30
2023-03-18T21:40:46.134Z,1.30
2023-03-18T21:43:32.208Z,1.10
2023-03-18T21:45:59.556Z,1.30
2023-03-18T21:48:26.526Z,1.00
2023-03-18T21:50:54.213Z,1.40
2023-03-18T21:53:22.011Z,1.08
2023-03-18T21:55:49.354Z,1.23
2023-03-18T21:58:23.219Z,1.10
2023-03-18T22:00:52.210Z,0.95
2023-03-18T22:03:23.072Z,1.17
2023-03-18T22:05:51.747Z,0.90
2023-03-18T22:08:19.852Z,1.20
2023-03-18T22:10:47.274Z,1.35
2023-03-18T22:13:21.547Z,1.40
2023-03-18T22:15:52.429Z,1.08
2023-03-18T22:18:19.366Z,1.38
2023-03-18T22:20:47.693Z,1.30
2023-03-18T22:23:36.623Z,1.10
2023-03-18T22:26:03.954Z,1.10
2023-03-18T22:28:32.409Z,0.93
2023-03-18T22:31:01.409Z,1.10
2023-03-18T22:33:33.640Z,0.85
2023-03-18T22:36:00.513Z,1.70
2023-03-18T22:38:27.549Z,0.93
2023-03-18T22:40:56.022Z,1.40
2023-03-18T22:43:34.852Z,1.20
2023-03-18T22:46:09.838Z,1.30
2023-03-18T22:48:36.888Z,1.20
2023-03-18T22:51:04.074Z,1.23
2023-03-18T22:53:38.495Z,1.23
2023-03-18T22:56:10.654Z,1.15
2023-03-18T22:58:38.136Z,1.20
2023-03-18T23:01:05.166Z,1.00
2023-03-18T23:03:36.903Z,1.20
2023-03-18T23:06:04.167Z,1.27
2023-03-18T23:08:31.202Z,1.00
2023-03-18T23:11:03.756Z,1.00
2023-03-18T23:13:39.171Z,1.00
2023-03-18T23:18:33.855Z,1.30
2023-03-18T23:21:00.935Z,1.10
2023-03-18T23:23:29.806Z,1.40
2023-03-18T23:25:56.602Z,1.40
2023-03-18T23:28:23.476Z,1.15
2023-03-18T23:30:53.655Z,1.10
2023-03-18T23:33:20.625Z,1.60
2023-03-18T23:35:48.180Z,1.13
2023-03-18T23:38:15.739Z,1.10
2023-03-18T23:40:42.674Z,1.10
2023-03-18T23:43:10.703Z,1.50
2023-03-18T23:45:38.785Z,1.67
2023-03-18T23:48:06.329Z,1.20
2023-03-18T23:50:33.471Z,1.30
2023-03-18T23:53:00.934Z,1.45
2023-03-18T23:55:34.975Z,1.15
2023-03-18T23:58:02.867Z,1.02
